sensor_id;sensor_type;location;lat;lon;timestamp;temperature;humidity
30764;DHT22;17497;51.476;7.770;2024-02-15T00:00:06;10.70;99.90
30764;DHT22;17497;51.476;7.770;2024-02-15T00:02:37;10.70;99.90
30764;DHT22;17497;51.476;7.770;2024-02-15T00:05:18;10.70;99.90
30764;DHT22;17497;51.476;7.770;2024-02-15T00:07:45;10.60;99.90
30764;DHT22;17497;51.476;7.770;2024-02-15T00:10:15;10.70;99.90
30764;DHT22;17497;51.476;7.770;2024-02-15T00:12:42;10.70;99.90
30764;DHT22;17497;51.476;7.770;2024-02-15T00:15:15;10.70;99.90
30764;DHT22;17497;51.476;7.770;2024-02-15T00:17:47;10.60;99.90
30764;DHT22;17497;51.476;7.770;2024-02-15T00:20:16;10.60;99.90
30764;DHT22;17497;51.476;7.770;2024-02-15T00:22:44;10.60;99.90
30764;DHT22;17497;51.476;7.770;2024-02-15T00:25:20;10.60;99.90
30764;DHT22;17497;51.476;7.770;2024-02-15T00:27:47;10.60;99.90
30764;DHT22;17497;51.476;7.770;2024-02-15T00:30:14;10.60;99.90
30764;DHT22;17497;51.476;7.770;2024-02-15T00:32:44;10.60;99.90
30764;DHT22;17497;51.476;7.770;2024-02-15T00:35:13;10.60;99.90
30764;DHT22;17497;51.476;7.770;2024-02-15T00:37:40;10.60;99.90
30764;DHT22;17497;51.476;7.770;2024-02-15T00:40:07;10.60;99.90
30764;DHT22;17497;51.476;7.770;2024-02-15T00:42:35;10.60;99.90
30764;DHT22;17497;51.476;7.770;2024-02-15T00:45:03;10.60;99.90
30764;DHT22;17497;51.476;7.770;2024-02-15T00:47:33;10.60;99.90
30764;DHT22;17497;51.476;7.770;2024-02-15T00:50:00;10.70;99.90
30764;DHT22;17497;51.476;7.770;2024-02-15T00:52:40;10.60;99.90
30764;DHT22;17497;51.476;7.770;2024-02-15T00:55:07;10.70;99.90
30764;DHT22;17497;51.476;7.770;2024-02-15T00:57:37;10.70;99.90
30764;DHT22;17497;51.476;7.770;2024-02-15T01:00:10;10.70;99.90
30764;DHT22;17497;51.476;7.770;2024-02-15T01:02:37;10.70;99.90
30764;DHT22;17497;51.476;7.770;2024-02-15T01:05:04;10.70;99.90
30764;DHT22;17497;51.476;7.770;2024-02-15T01:07:37;10.70;99.90
30764;DHT22;17497;51.476;7.770;2024-02-15T01:10:07;10.70;99.90
30764;DHT22;17497;51.476;7.770;2024-02-15T01:12:34;10.70;99.90
30764;DHT22;17497;51.476;7.770;2024-02-15T01:15:01;10.60;99.90
30764;DHT22;17497;51.476;7.770;2024-02-15T01:17:29;10.60;99.90
30764;DHT22;17497;51.476;7.770;2024-02-15T01:19:56;10.60;99.90
30764;DHT22;17497;51.476;7.770;2024-02-15T01:22:23;10.60;99.90
30764;DHT22;17497;51.476;7.770;2024-02-15T01:24:51;10.60;99.90
30764;DHT22;17497;51.476;7.770;2024-02-15T01:27:29;10.60;99.90
30764;DHT22;17497;51.476;7.770;2024-02-15T01:29:57;10.70;99.90
30764;DHT22;17497;51.476;7.770;2024-02-15T01:32:34;10.60;99.90
30764;DHT22;17497;51.476;7.770;2024-02-15T01:35:07;10.60;99.90
30764;DHT22;17497;51.476;7.770;2024-02-15T01:37:39;10.60;99.90
30764;DHT22;17497;51.476;7.770;2024-02-15T01:40:07;10.60;99.90
30764;DHT22;17497;51.476;7.770;2024-02-15T01:42:35;10.60;99.90
30764;DHT22;17497;51.476;7.770;2024-02-15T01:45:05;10.60;99.90
30764;DHT22;17497;51.476;7.770;2024-02-15T01:47:45;10.60;99.90
30764;DHT22;17497;51.476;7.770;2024-02-15T01:50:12;10.60;99.90
30764;DHT22;17497;51.476;7.770;2024-02-15T01:52:42;10.60;99.90
30764;DHT22;17497;51.476;7.770;2024-02-15T01:55:16;10.60;99.90
30764;DHT22;17497;51.476;7.770;2024-02-15T01:57:50;10.60;99.90
30764;DHT22;17497;51.476;7.770;2024-02-15T02:00:19;10.60;99.90
30764;DHT22;17497;51.476;7.770;2024-02-15T02:02:46;10.60;99.90
30764;DHT22;17497;51.476;7.770;2024-02-15T02:05:14;10.70;99.90
30764;DHT22;17497;51.476;7.770;2024-02-15T02:07:41;10.60;99.90
30764;DHT22;17497;51.476;7.770;2024-02-15T02:10:11;10.60;99.90
30764;DHT22;17497;51.476;7.770;2024-02-15T02:12:47;10.60;99.90
30764;DHT22;17497;51.476;7.770;2024-02-15T02:15:15;10.70;99.90
30764;DHT22;17497;51.476;7.770;2024-02-15T02:17:42;10.60;99.90
30764;DHT22;17497;51.476;7.770;2024-02-15T02:20:09;10.60;99.90
30764;DHT22;17497;51.476;7.770;2024-02-15T02:22:45;10.70;99.90
30764;DHT22;17497;51.476;7.770;2024-02-15T02:25:13;10.70;99.90
30764;DHT22;17497;51.476;7.770;2024-02-15T02:27:40;10.70;99.90
30764;DHT22;17497;51.476;7.770;2024-02-15T02:30:16;10.70;99.90
30764;DHT22;17497;51.476;7.770;2024-02-15T02:32:48;10.70;99.90
30764;DHT22;17497;51.476;7.770;2024-02-15T02:35:16;10.70;99.90
30764;DHT22;17497;51.476;7.770;2024-02-15T02:37:43;10.70;99.90
30764;DHT22;17497;51.476;7.770;2024-02-15T02:40:10;10.70;99.90
30764;DHT22;17497;51.476;7.770;2024-02-15T02:42:49;10.70;99.90
30764;DHT22;17497;51.476;7.770;2024-02-15T02:45:17;10.70;99.90
30764;DHT22;17497;51.476;7.770;2024-02-15T02:47:46;10.70;99.90
30764;DHT22;17497;51.476;7.770;2024-02-15T02:50:18;10.70;99.90
30764;DHT22;17497;51.476;7.770;2024-02-15T02:52:48;10.70;99.90
30764;DHT22;17497;51.476;7.770;2024-02-15T02:55:15;10.70;99.90
30764;DHT22;17497;51.476;7.770;2024-02-15T02:57:42;10.70;99.90
30764;DHT22;17497;51.476;7.770;2024-02-15T03:00:09;10.70;99.90
30764;DHT22;17497;51.476;7.770;2024-02-15T03:02:39;10.70;99.90
30764;DHT22;17497;51.476;7.770;2024-02-15T03:05:09;10.70;99.90
30764;DHT22;17497;51.476;7.770;2024-02-15T03:07:38;10.70;99.90
30764;DHT22;17497;51.476;7.770;2024-02-15T03:10:09;10.70;99.90
30764;DHT22;17497;51.476;7.770;2024-02-15T03:12:41;10.70;99.90
30764;DHT22;17497;51.476;7.770;2024-02-15T03:15:15;10.70;99.90
30764;DHT22;17497;51.476;7.770;2024-02-15T03:17:46;10.70;99.90
30764;DHT22;17497;51.476;7.770;2024-02-15T03:20:16;10.70;99.90
30764;DHT22;17497;51.476;7.770;2024-02-15T03:22:52;10.70;99.90
30764;DHT22;17497;51.476;7.770;2024-02-15T03:25:20;10.60;99.90
30764;DHT22;17497;51.476;7.770;2024-02-15T03:27:50;10.60;99.90
30764;DHT22;17497;51.476;7.770;2024-02-15T03:30:21;10.60;99.90
30764;DHT22;17497;51.476;7.770;2024-02-15T03:32:49;10.60;99.90
30764;DHT22;17497;51.476;7.770;2024-02-15T03:35:18;10.70;99.90
30764;DHT22;17497;51.476;7.770;2024-02-15T03:37:45;10.70;99.90
30764;DHT22;17497;51.476;7.770;2024-02-15T03:40:12;10.70;99.90
30764;DHT22;17497;51.476;7.770;2024-02-15T03:42:39;10.70;99.90
30764;DHT22;17497;51.476;7.770;2024-02-15T03:45:06;10.70;99.90
30764;DHT22;17497;51.476;7.770;2024-02-15T03:47:34;10.60;99.90
30764;DHT22;17497;51.476;7.770;2024-02-15T03:50:05;10.60;99.90
30764;DHT22;17497;51.476;7.770;2024-02-15T03:52:33;10.60;99.90
30764;DHT22;17497;51.476;7.770;2024-02-15T03:54:59;10.60;99.90
30764;DHT22;17497;51.476;7.770;2024-02-15T03:57:26;10.50;99.90
30764;DHT22;17497;51.476;7.770;2024-02-15T03:59:53;10.50;99.90
30764;DHT22;17497;51.476;7.770;2024-02-15T04:02:29;10.40;99.90
30764;DHT22;17497;51.476;7.770;2024-02-15T04:04:59;10.40;99.90
30764;DHT22;17497;51.476;7.770;2024-02-15T04:07:42;10.40;99.90
30764;DHT22;17497;51.476;7.770;2024-02-15T04:10:12;10.30;99.90
30764;DHT22;17497;51.476;7.770;2024-02-15T04:12:40;10.20;99.90
30764;DHT22;17497;51.476;7.770;2024-02-15T04:15:13;10.20;99.90
30764;DHT22;17497;51.476;7.770;2024-02-15T04:17:42;10.10;99.90
30764;DHT22;17497;51.476;7.770;2024-02-15T04:20:13;10.20;99.90
30764;DHT22;17497;51.476;7.770;2024-02-15T04:22:42;10.10;99.90
30764;DHT22;17497;51.476;7.770;2024-02-15T04:25:11;10.10;99.90
30764;DHT22;17497;51.476;7.770;2024-02-15T04:27:44;10.20;99.90
30764;DHT22;17497;51.476;7.770;2024-02-15T04:30:14;10.30;99.90
30764;DHT22;17497;51.476;7.770;2024-02-15T04:32:42;10.30;99.90
30764;DHT22;17497;51.476;7.770;2024-02-15T04:35:10;10.30;99.90
30764;DHT22;17497;51.476;7.770;2024-02-15T04:37:40;10.40;99.90
30764;DHT22;17497;51.476;7.770;2024-02-15T04:40:07;10.40;99.90
30764;DHT22;17497;51.476;7.770;2024-02-15T04:42:37;10.40;99.90
30764;DHT22;17497;51.476;7.770;2024-02-15T04:45:08;10.40;99.90
30764;DHT22;17497;51.476;7.770;2024-02-15T04:51:05;10.40;99.90
30764;DHT22;17497;51.476;7.770;2024-02-15T04:53:32;10.40;99.90
30764;DHT22;17497;51.476;7.770;2024-02-15T04:56:01;10.40;99.90
30764;DHT22;17497;51.476;7.770;2024-02-15T04:58:29;10.30;99.90
30764;DHT22;17497;51.476;7.770;2024-02-15T05:00:56;10.30;99.90
30764;DHT22;17497;51.476;7.770;2024-02-15T05:03:26;10.30;99.90
30764;DHT22;17497;51.476;7.770;2024-02-15T05:05:53;10.30;99.90
30764;DHT22;17497;51.476;7.770;2024-02-15T05:08:20;10.30;99.90
30764;DHT22;17497;51.476;7.770;2024-02-15T05:10:47;10.20;99.90
30764;DHT22;17497;51.476;7.770;2024-02-15T05:13:13;10.20;99.90
30764;DHT22;17497;51.476;7.770;2024-02-15T05:15:43;10.30;99.90
30764;DHT22;17497;51.476;7.770;2024-02-15T05:18:09;10.40;99.90
30764;DHT22;17497;51.476;7.770;2024-02-15T05:20:36;10.40;99.90
30764;DHT22;17497;51.476;7.770;2024-02-15T05:23:03;10.40;99.90
30764;DHT22;17497;51.476;7.770;2024-02-15T05:25:30;10.50;99.90
30764;DHT22;17497;51.476;7.770;2024-02-15T05:28:02;10.60;99.90
30764;DHT22;17497;51.476;7.770;2024-02-15T05:30:30;10.60;99.90
30764;DHT22;17497;51.476;7.770;2024-02-15T05:32:59;10.60;99.90
30764;DHT22;17497;51.476;7.770;2024-02-15T05:35:26;10.60;99.90
30764;DHT22;17497;51.476;7.770;2024-02-15T05:37:54;10.60;99.90
30764;DHT22;17497;51.476;7.770;2024-02-15T05:40:22;10.60;99.90
30764;DHT22;17497;51.476;7.770;2024-02-15T05:42:54;10.60;99.90
30764;DHT22;17497;51.476;7.770;2024-02-15T05:47:56;10.60;99.90
30764;DHT22;17497;51.476;7.770;2024-02-15T05:50:25;10.60;99.90
30764;DHT22;17497;51.476;7.770;2024-02-15T05:52:54;10.60;99.90
30764;DHT22;17497;51.476;7.770;2024-02-15T05:55:21;10.60;99.90
30764;DHT22;17497;51.476;7.770;2024-02-15T05:57:49;10.50;99.90
30764;DHT22;17497;51.476;7.770;2024-02-15T06:00:15;10.60;99.90
30764;DHT22;17497;51.476;7.770;2024-02-15T06:02:48;10.50;99.90
30764;DHT22;17497;51.476;7.770;2024-02-15T06:05:18;10.50;99.90
30764;DHT22;17497;51.476;7.770;2024-02-15T06:07:46;10.50;99.90
30764;DHT22;17497;51.476;7.770;2024-02-15T06:10:16;10.50;99.90
30764;DHT22;17497;51.476;7.770;2024-02-15T06:12:44;10.50;99.90
30764;DHT22;17497;51.476;7.770;2024-02-15T06:15:11;10.50;99.90
30764;DHT22;17497;51.476;7.770;2024-02-15T06:17:41;10.50;99.90
30764;DHT22;17497;51.476;7.770;2024-02-15T06:20:11;10.50;99.90
30764;DHT22;17497;51.476;7.770;2024-02-15T06:22:43;10.50;99.90
30764;DHT22;17497;51.476;7.770;2024-02-15T06:25:10;10.50;99.90
30764;DHT22;17497;51.476;7.770;2024-02-15T06:27:37;10.50;99.90
30764;DHT22;17497;51.476;7.770;2024-02-15T06:30:08;10.40;99.90
30764;DHT22;17497;51.476;7.770;2024-02-15T06:32:55;10.40;99.90
30764;DHT22;17497;51.476;7.770;2024-02-15T06:35:41;10.50;99.90
30764;DHT22;17497;51.476;7.770;2024-02-15T06:38:26;10.50;99.90
30764;DHT22;17497;51.476;7.770;2024-02-15T06:41:12;10.60;99.90
30764;DHT22;17497;51.476;7.770;2024-02-15T06:43:39;10.70;99.90
30764;DHT22;17497;51.476;7.770;2024-02-15T06:46:09;10.80;99.90
30764;DHT22;17497;51.476;7.770;2024-02-15T06:48:37;10.80;99.90
30764;DHT22;17497;51.476;7.770;2024-02-15T06:51:04;10.80;99.90
30764;DHT22;17497;51.476;7.770;2024-02-15T06:53:32;10.70;99.90
30764;DHT22;17497;51.476;7.770;2024-02-15T06:55:59;10.60;99.90
30764;DHT22;17497;51.476;7.770;2024-02-15T06:58:27;10.60;99.90
30764;DHT22;17497;51.476;7.770;2024-02-15T07:00:54;10.70;99.90
30764;DHT22;17497;51.476;7.770;2024-02-15T07:03:21;10.60;99.90
30764;DHT22;17497;51.476;7.770;2024-02-15T07:05:50;10.60;99.90
30764;DHT22;17497;51.476;7.770;2024-02-15T07:08:17;10.60;99.90
30764;DHT22;17497;51.476;7.770;2024-02-15T07:10:43;10.60;99.90
30764;DHT22;17497;51.476;7.770;2024-02-15T07:13:10;10.70;99.90
30764;DHT22;17497;51.476;7.770;2024-02-15T07:15:37;10.80;99.90
30764;DHT22;17497;51.476;7.770;2024-02-15T07:18:10;10.80;99.90
30764;DHT22;17497;51.476;7.770;2024-02-15T07:20:38;10.90;99.90
30764;DHT22;17497;51.476;7.770;2024-02-15T07:23:08;10.90;99.90
30764;DHT22;17497;51.476;7.770;2024-02-15T07:25:35;11.00;99.90
30764;DHT22;17497;51.476;7.770;2024-02-15T07:28:02;11.00;99.90
30764;DHT22;17497;51.476;7.770;2024-02-15T07:30:29;11.00;99.90
30764;DHT22;17497;51.476;7.770;2024-02-15T07:32:56;11.00;99.90
30764;DHT22;17497;51.476;7.770;2024-02-15T07:35:23;11.00;99.90
30764;DHT22;17497;51.476;7.770;2024-02-15T07:37:52;11.00;99.90
30764;DHT22;17497;51.476;7.770;2024-02-15T07:40:20;11.00;99.90
30764;DHT22;17497;51.476;7.770;2024-02-15T07:42:48;11.00;99.90
30764;DHT22;17497;51.476;7.770;2024-02-15T07:45:15;10.90;99.90
30764;DHT22;17497;51.476;7.770;2024-02-15T07:47:43;11.00;99.90
30764;DHT22;17497;51.476;7.770;2024-02-15T07:50:15;11.00;99.90
30764;DHT22;17497;51.476;7.770;2024-02-15T07:52:46;11.00;99.90
30764;DHT22;17497;51.476;7.770;2024-02-15T07:55:20;10.90;99.90
30764;DHT22;17497;51.476;7.770;2024-02-15T07:57:50;10.90;99.90
30764;DHT22;17497;51.476;7.770;2024-02-15T08:00:18;10.90;99.90
30764;DHT22;17497;51.476;7.770;2024-02-15T08:02:44;10.90;99.90
30764;DHT22;17497;51.476;7.770;2024-02-15T08:05:12;11.00;99.90
30764;DHT22;17497;51.476;7.770;2024-02-15T08:07:42;11.00;99.90
30764;DHT22;17497;51.476;7.770;2024-02-15T08:10:09;11.00;99.90
30764;DHT22;17497;51.476;7.770;2024-02-15T08:12:45;11.00;99.90
30764;DHT22;17497;51.476;7.770;2024-02-15T08:15:15;11.10;99.90
30764;DHT22;17497;51.476;7.770;2024-02-15T08:17:45;11.10;99.90
30764;DHT22;17497;51.476;7.770;2024-02-15T08:20:15;11.10;99.90
30764;DHT22;17497;51.476;7.770;2024-02-15T08:22:43;11.20;99.90
30764;DHT22;17497;51.476;7.770;2024-02-15T08:25:11;11.20;99.90
30764;DHT22;17497;51.476;7.770;2024-02-15T08:27:39;11.20;99.90
30764;DHT22;17497;51.476;7.770;2024-02-15T08:30:12;11.20;99.90
30764;DHT22;17497;51.476;7.770;2024-02-15T08:32:40;11.20;99.90
30764;DHT22;17497;51.476;7.770;2024-02-15T08:35:08;11.20;99.90
30764;DHT22;17497;51.476;7.770;2024-02-15T08:37:35;11.20;99.90
30764;DHT22;17497;51.476;7.770;2024-02-15T08:40:03;11.20;99.90
30764;DHT22;17497;51.476;7.770;2024-02-15T08:42:30;11.20;99.90
30764;DHT22;17497;51.476;7.770;2024-02-15T08:44:59;11.30;99.90
30764;DHT22;17497;51.476;7.770;2024-02-15T08:47:26;11.30;99.90
30764;DHT22;17497;51.476;7.770;2024-02-15T08:49:53;11.30;99.90
30764;DHT22;17497;51.476;7.770;2024-02-15T08:52:20;11.40;99.90
30764;DHT22;17497;51.476;7.770;2024-02-15T08:54:47;11.40;99.90
30764;DHT22;17497;51.476;7.770;2024-02-15T08:57:13;11.50;99.90
30764;DHT22;17497;51.476;7.770;2024-02-15T08:59:40;11.60;99.90
30764;DHT22;17497;51.476;7.770;2024-02-15T09:02:07;11.70;99.90
30764;DHT22;17497;51.476;7.770;2024-02-15T09:04:33;11.70;99.90
30764;DHT22;17497;51.476;7.770;2024-02-15T09:07:00;11.70;99.90
30764;DHT22;17497;51.476;7.770;2024-02-15T09:09:30;11.80;99.90
30764;DHT22;17497;51.476;7.770;2024-02-15T09:12:00;11.90;99.90
30764;DHT22;17497;51.476;7.770;2024-02-15T09:14:27;12.00;99.90
30764;DHT22;17497;51.476;7.770;2024-02-15T09:16:54;11.90;99.90
30764;DHT22;17497;51.476;7.770;2024-02-15T09:19:20;11.90;99.90
30764;DHT22;17497;51.476;7.770;2024-02-15T09:21:47;11.90;99.90
30764;DHT22;17497;51.476;7.770;2024-02-15T09:24:14;11.90;99.90
30764;DHT22;17497;51.476;7.770;2024-02-15T09:26:49;11.80;99.90
30764;DHT22;17497;51.476;7.770;2024-02-15T09:29:16;11.80;99.90
30764;DHT22;17497;51.476;7.770;2024-02-15T09:31:43;11.80;99.90
30764;DHT22;17497;51.476;7.770;2024-02-15T09:34:11;11.80;99.90
30764;DHT22;17497;51.476;7.770;2024-02-15T09:36:40;11.80;99.90
30764;DHT22;17497;51.476;7.770;2024-02-15T09:39:09;11.70;99.90
30764;DHT22;17497;51.476;7.770;2024-02-15T09:41:40;11.70;99.90
30764;DHT22;17497;51.476;7.770;2024-02-15T09:44:09;11.70;99.90
30764;DHT22;17497;51.476;7.770;2024-02-15T09:46:38;11.70;99.90
30764;DHT22;17497;51.476;7.770;2024-02-15T09:49:08;11.70;99.90
30764;DHT22;17497;51.476;7.770;2024-02-15T09:51:35;11.70;99.90
30764;DHT22;17497;51.476;7.770;2024-02-15T09:54:03;11.70;99.90
30764;DHT22;17497;51.476;7.770;2024-02-15T09:56:42;11.70;99.90
30764;DHT22;17497;51.476;7.770;2024-02-15T09:59:11;11.70;99.90
30764;DHT22;17497;51.476;7.770;2024-02-15T10:01:50;11.70;99.90
30764;DHT22;17497;51.476;7.770;2024-02-15T10:04:20;11.70;99.90
30764;DHT22;17497;51.476;7.770;2024-02-15T10:06:48;11.70;99.90
30764;DHT22;17497;51.476;7.770;2024-02-15T10:09:29;11.70;99.90
30764;DHT22;17497;51.476;7.770;2024-02-15T10:12:07;11.70;99.90
30764;DHT22;17497;51.476;7.770;2024-02-15T10:14:36;11.70;99.90
30764;DHT22;17497;51.476;7.770;2024-02-15T10:17:05;11.80;99.90
30764;DHT22;17497;51.476;7.770;2024-02-15T10:20:05;11.80;99.90
30764;DHT22;17497;51.476;7.770;2024-02-15T10:22:32;11.80;99.90
30764;DHT22;17497;51.476;7.770;2024-02-15T10:25:12;11.90;99.90
30764;DHT22;17497;51.476;7.770;2024-02-15T10:27:40;11.90;99.90
30764;DHT22;17497;51.476;7.770;2024-02-15T10:30:16;12.00;99.90
30764;DHT22;17497;51.476;7.770;2024-02-15T10:32:43;12.00;99.90
30764;DHT22;17497;51.476;7.770;2024-02-15T10:35:10;12.10;99.90
30764;DHT22;17497;51.476;7.770;2024-02-15T10:37:45;12.20;99.90
30764;DHT22;17497;51.476;7.770;2024-02-15T10:40:12;12.30;99.90
30764;DHT22;17497;51.476;7.770;2024-02-15T10:42:40;12.30;99.90
30764;DHT22;17497;51.476;7.770;2024-02-15T10:45:08;12.50;99.90
30764;DHT22;17497;51.476;7.770;2024-02-15T10:47:38;12.70;99.90
30764;DHT22;17497;51.476;7.770;2024-02-15T10:50:06;12.80;99.90
30764;DHT22;17497;51.476;7.770;2024-02-15T10:52:33;12.90;99.90
30764;DHT22;17497;51.476;7.770;2024-02-15T10:55:05;12.90;99.90
30764;DHT22;17497;51.476;7.770;2024-02-15T10:57:42;12.90;99.90
30764;DHT22;17497;51.476;7.770;2024-02-15T11:00:12;12.90;99.90
30764;DHT22;17497;51.476;7.770;2024-02-15T11:03:00;12.90;99.90
30764;DHT22;17497;51.476;7.770;2024-02-15T11:05:32;12.80;99.90
30764;DHT22;17497;51.476;7.770;2024-02-15T11:08:02;12.70;99.90
30764;DHT22;17497;51.476;7.770;2024-02-15T11:10:30;12.70;99.90
30764;DHT22;17497;51.476;7.770;2024-02-15T11:12:58;12.70;99.90
30764;DHT22;17497;51.476;7.770;2024-02-15T11:18:06;12.80;99.90
30764;DHT22;17497;51.476;7.770;2024-02-15T11:23:03;12.90;99.90
30764;DHT22;17497;51.476;7.770;2024-02-15T11:25:32;12.90;99.90
30764;DHT22;17497;51.476;7.770;2024-02-15T11:30:53;13.00;99.90
30764;DHT22;17497;51.476;7.770;2024-02-15T11:33:33;13.00;99.90
30764;DHT22;17497;51.476;7.770;2024-02-15T11:38:31;13.10;99.90
30764;DHT22;17497;51.476;7.770;2024-02-15T11:40:59;13.10;99.90
30764;DHT22;17497;51.476;7.770;2024-02-15T11:46:27;13.40;99.90
30764;DHT22;17497;51.476;7.770;2024-02-15T11:48:58;13.40;99.90
30764;DHT22;17497;51.476;7.770;2024-02-15T11:51:31;13.40;99.90
30764;DHT22;17497;51.476;7.770;2024-02-15T11:54:04;13.40;99.90
30764;DHT22;17497;51.476;7.770;2024-02-15T11:59:13;13.60;99.90
30764;DHT22;17497;51.476;7.770;2024-02-15T12:01:58;13.70;99.90
30764;DHT22;17497;51.476;7.770;2024-02-15T12:04:43;13.60;99.90
30764;DHT22;17497;51.476;7.770;2024-02-15T12:07:29;13.60;99.90
30764;DHT22;17497;51.476;7.770;2024-02-15T12:10:17;13.60;99.90
30764;DHT22;17497;51.476;7.770;2024-02-15T12:13:03;13.60;99.90
30764;DHT22;17497;51.476;7.770;2024-02-15T12:15:59;13.60;99.90
30764;DHT22;17497;51.476;7.770;2024-02-15T12:18:45;13.60;99.90
30764;DHT22;17497;51.476;7.770;2024-02-15T12:21:15;13.50;99.90
30764;DHT22;17497;51.476;7.770;2024-02-15T12:23:42;13.50;99.90
30764;DHT22;17497;51.476;7.770;2024-02-15T12:26:09;13.60;99.90
30764;DHT22;17497;51.476;7.770;2024-02-15T12:28:36;13.60;99.90
30764;DHT22;17497;51.476;7.770;2024-02-15T12:31:03;13.60;99.90
30764;DHT22;17497;51.476;7.770;2024-02-15T12:33:33;13.70;99.90
30764;DHT22;17497;51.476;7.770;2024-02-15T12:36:03;13.70;99.90
30764;DHT22;17497;51.476;7.770;2024-02-15T12:38:30;13.70;99.90
30764;DHT22;17497;51.476;7.770;2024-02-15T12:40:57;13.70;99.90
30764;DHT22;17497;51.476;7.770;2024-02-15T12:43:23;13.80;99.90
30764;DHT22;17497;51.476;7.770;2024-02-15T12:45:50;13.80;99.90
30764;DHT22;17497;51.476;7.770;2024-02-15T12:48:18;13.80;99.90
30764;DHT22;17497;51.476;7.770;2024-02-15T12:50:45;13.90;99.90
30764;DHT22;17497;51.476;7.770;2024-02-15T12:53:12;14.00;99.90
30764;DHT22;17497;51.476;7.770;2024-02-15T12:55:39;14.10;99.90
30764;DHT22;17497;51.476;7.770;2024-02-15T12:58:07;14.20;99.90
30764;DHT22;17497;51.476;7.770;2024-02-15T13:00:40;14.30;99.90
30764;DHT22;17497;51.476;7.770;2024-02-15T13:03:07;14.40;99.90
30764;DHT22;17497;51.476;7.770;2024-02-15T13:05:38;14.50;99.90
30764;DHT22;17497;51.476;7.770;2024-02-15T13:08:05;14.60;99.90
30764;DHT22;17497;51.476;7.770;2024-02-15T13:10:36;14.80;99.90
30764;DHT22;17497;51.476;7.770;2024-02-15T13:13:03;14.90;99.90
30764;DHT22;17497;51.476;7.770;2024-02-15T13:15:30;15.10;99.90
30764;DHT22;17497;51.476;7.770;2024-02-15T13:18:00;15.30;99.90
30764;DHT22;17497;51.476;7.770;2024-02-15T13:20:28;15.60;99.90
30764;DHT22;17497;51.476;7.770;2024-02-15T13:22:59;15.70;99.90
30764;DHT22;17497;51.476;7.770;2024-02-15T13:25:35;15.80;99.90
30764;DHT22;17497;51.476;7.770;2024-02-15T13:28:03;16.00;99.90
30764;DHT22;17497;51.476;7.770;2024-02-15T13:30:30;16.00;99.90
30764;DHT22;17497;51.476;7.770;2024-02-15T13:32:57;15.90;99.90
30764;DHT22;17497;51.476;7.770;2024-02-15T13:35:26;15.70;99.90
30764;DHT22;17497;51.476;7.770;2024-02-15T13:37:53;15.60;99.90
30764;DHT22;17497;51.476;7.770;2024-02-15T13:40:25;15.50;99.90
30764;DHT22;17497;51.476;7.770;2024-02-15T13:42:54;15.50;99.90
30764;DHT22;17497;51.476;7.770;2024-02-15T13:45:22;15.50;99.90
30764;DHT22;17497;51.476;7.770;2024-02-15T13:47:50;15.60;99.90
30764;DHT22;17497;51.476;7.770;2024-02-15T13:50:19;15.60;99.90
30764;DHT22;17497;51.476;7.770;2024-02-15T13:52:46;15.70;99.90
30764;DHT22;17497;51.476;7.770;2024-02-15T13:55:13;15.70;99.90
30764;DHT22;17497;51.476;7.770;2024-02-15T13:57:40;15.80;99.90
30764;DHT22;17497;51.476;7.770;2024-02-15T14:00:08;15.80;99.90
30764;DHT22;17497;51.476;7.770;2024-02-15T14:02:40;15.70;99.90
30764;DHT22;17497;51.476;7.770;2024-02-15T14:05:08;15.70;99.90
30764;DHT22;17497;51.476;7.770;2024-02-15T14:07:35;15.50;99.90
30764;DHT22;17497;51.476;7.770;2024-02-15T14:10:03;15.50;99.90
30764;DHT22;17497;51.476;7.770;2024-02-15T14:12:30;15.30;99.90
30764;DHT22;17497;51.476;7.770;2024-02-15T14:14:57;15.20;99.90
30764;DHT22;17497;51.476;7.770;2024-02-15T14:17:23;15.20;99.90
30764;DHT22;17497;51.476;7.770;2024-02-15T14:19:50;15.20;99.90
30764;DHT22;17497;51.476;7.770;2024-02-15T14:22:17;15.20;99.90
30764;DHT22;17497;51.476;7.770;2024-02-15T14:24:43;15.10;99.90
30764;DHT22;17497;51.476;7.770;2024-02-15T14:27:11;15.10;99.90
30764;DHT22;17497;51.476;7.770;2024-02-15T14:29:37;15.20;99.90
30764;DHT22;17497;51.476;7.770;2024-02-15T14:32:11;15.10;99.90
30764;DHT22;17497;51.476;7.770;2024-02-15T14:34:56;15.10;99.90
30764;DHT22;17497;51.476;7.770;2024-02-15T14:37:23;15.00;99.90
30764;DHT22;17497;51.476;7.770;2024-02-15T14:39:50;15.00;99.90
30764;DHT22;17497;51.476;7.770;2024-02-15T14:42:17;15.00;99.90
30764;DHT22;17497;51.476;7.770;2024-02-15T14:44:44;15.00;99.90
30764;DHT22;17497;51.476;7.770;2024-02-15T14:47:11;15.10;99.90
30764;DHT22;17497;51.476;7.770;2024-02-15T14:49:38;15.10;99.90
30764;DHT22;17497;51.476;7.770;2024-02-15T14:52:05;15.20;99.90
30764;DHT22;17497;51.476;7.770;2024-02-15T14:54:32;15.10;99.90
30764;DHT22;17497;51.476;7.770;2024-02-15T14:57:00;15.10;99.90
30764;DHT22;17497;51.476;7.770;2024-02-15T14:59:26;15.10;99.90
30764;DHT22;17497;51.476;7.770;2024-02-15T15:01:53;15.00;99.90
30764;DHT22;17497;51.476;7.770;2024-02-15T15:04:27;15.00;99.90
30764;DHT22;17497;51.476;7.770;2024-02-15T15:07:01;14.80;99.90
30764;DHT22;17497;51.476;7.770;2024-02-15T15:10:03;14.80;99.90
30764;DHT22;17497;51.476;7.770;2024-02-15T15:12:49;14.70;99.90
30764;DHT22;17497;51.476;7.770;2024-02-15T15:15:16;14.60;99.90
30764;DHT22;17497;51.476;7.770;2024-02-15T15:17:47;14.60;99.90
30764;DHT22;17497;51.476;7.770;2024-02-15T15:20:15;14.60;99.90
30764;DHT22;17497;51.476;7.770;2024-02-15T15:22:43;14.50;99.90
30764;DHT22;17497;51.476;7.770;2024-02-15T15:25:10;14.50;99.90
30764;DHT22;17497;51.476;7.770;2024-02-15T15:27:37;14.50;99.90
30764;DHT22;17497;51.476;7.770;2024-02-15T15:30:04;14.50;99.90
30764;DHT22;17497;51.476;7.770;2024-02-15T15:32:31;14.50;99.90
30764;DHT22;17497;51.476;7.770;2024-02-15T15:34:58;14.50;99.90
30764;DHT22;17497;51.476;7.770;2024-02-15T15:37:24;14.40;99.90
30764;DHT22;17497;51.476;7.770;2024-02-15T15:39:51;14.40;99.90
30764;DHT22;17497;51.476;7.770;2024-02-15T15:42:20;14.40;99.90
30764;DHT22;17497;51.476;7.770;2024-02-15T15:44:47;14.40;99.90
30764;DHT22;17497;51.476;7.770;2024-02-15T15:47:14;14.40;99.90
30764;DHT22;17497;51.476;7.770;2024-02-15T15:49:40;14.30;99.90
30764;DHT22;17497;51.476;7.770;2024-02-15T15:52:07;14.30;99.90
30764;DHT22;17497;51.476;7.770;2024-02-15T15:54:34;14.20;99.90
30764;DHT22;17497;51.476;7.770;2024-02-15T15:57:00;14.10;99.90
30764;DHT22;17497;51.476;7.770;2024-02-15T15:59:30;14.20;99.90
30764;DHT22;17497;51.476;7.770;2024-02-15T16:01:58;14.10;99.90
30764;DHT22;17497;51.476;7.770;2024-02-15T16:04:24;14.20;99.90
30764;DHT22;17497;51.476;7.770;2024-02-15T16:06:51;14.20;99.90